createdAt,value
2022-12-04T00:02:41.906Z,52.90
2022-12-04T00:05:44.897Z,49.30
2022-12-04T00:08:48.480Z,58.25
2022-12-04T00:11:51.720Z,51.47
2022-12-04T00:18:18.217Z,50.53
2022-12-04T00:21:21.394Z,49.50
2022-12-04T00:24:26.199Z,48.95
2022-12-04T00:27:29.355Z,51.92
2022-12-04T00:30:32.909Z,53.65
2022-12-04T00:33:36.527Z,50.17
2022-12-04T00:36:42.451Z,52.47
2022-12-04T00:39:45.300Z,52.92
2022-12-04T00:42:50.502Z,52.80
2022-12-04T00:45:53.476Z,51.53
2022-12-04T00:49:02.826Z,53.58
2022-12-04T00:52:06.053Z,49.53
2022-12-04T00:55:09.751Z,53.15
2022-12-04T00:58:12.577Z,54.05
2022-12-04T01:01:20.276Z,53.95
2022-12-04T01:04:29.426Z,54.00
2022-12-04T01:07:32.448Z,48.67
2022-12-04T01:10:35.750Z,53.28
2022-12-04T01:13:39.361Z,54.10
2022-12-04T01:16:43.727Z,51.58
2022-12-04T01:19:59.008Z,54.72
2022-12-04T01:23:02.299Z,54.47
2022-12-04T01:26:05.342Z,55.47
2022-12-04T01:29:08.782Z,52.72
2022-12-04T01:32:12.035Z,53.25
2022-12-04T01:35:15.420Z,60.55
2022-12-04T01:38:18.349Z,61.00
2022-12-04T01:41:27.341Z,54.58
2022-12-04T01:44:33.169Z,58.08
2022-12-04T01:47:36.037Z,54.03
2022-12-04T01:50:38.965Z,52.58
2022-12-04T01:53:43.766Z,53.03
2022-12-04T01:56:51.901Z,57.35
2022-12-04T02:00:02.631Z,55.30
2022-12-04T02:03:05.444Z,52.75
2022-12-04T02:06:08.681Z,58.03
2022-12-04T02:09:11.659Z,62.23
2022-12-04T02:12:44.405Z,55.97
2022-12-04T02:16:02.247Z,55.42
2022-12-04T02:19:26.930Z,58.97
2022-12-04T02:22:51.562Z,52.22
2022-12-04T02:26:12.912Z,53.57
2022-12-04T02:29:37.152Z,50.92
2022-12-04T02:32:44.153Z,53.83
2022-12-04T02:36:05.848Z,53.72
2022-12-04T02:39:15.383Z,53.03
2022-12-04T02:42:33.070Z,55.70
2022-12-04T02:45:41.076Z,52.38
2022-12-04T02:48:47.017Z,53.13
2022-12-04T02:51:50.716Z,50.75
2022-12-04T02:54:58.222Z,51.70
2022-12-04T02:58:06.128Z,51.83
2022-12-04T03:01:20.789Z,59.30
2022-12-04T03:04:26.476Z,58.97
2022-12-04T03:07:40.688Z,56.53
2022-12-04T03:10:50.408Z,57.20
2022-12-04T03:14:23.740Z,61.20
2022-12-04T03:17:34.414Z,54.92
2022-12-04T03:20:38.713Z,53.22
2022-12-04T03:23:50.392Z,55.95
2022-12-04T03:26:59.010Z,50.67
2022-12-04T03:30:14.834Z,54.03
2022-12-04T03:33:21.930Z,52.05
2022-12-04T03:36:38.238Z,52.67
2022-12-04T03:39:44.120Z,52.40
2022-12-04T03:42:51.987Z,49.63
2022-12-04T03:46:10.758Z,51.50
2022-12-04T03:49:24.363Z,48.63
2022-12-04T03:52:50.018Z,44.80
2022-12-04T03:56:09.229Z,46.13
2022-12-04T03:59:24.737Z,41.42
2022-12-04T04:02:33.933Z,40.03
2022-12-04T04:05:37.437Z,39.67
2022-12-04T04:08:46.301Z,42.28
2022-12-04T04:12:07.299Z,38.67
2022-12-04T04:15:34.626Z,39.08
2022-12-04T04:18:57.479Z,35.10
2022-12-04T04:22:22.351Z,40.00
2022-12-04T04:25:26.531Z,39.03
2022-12-04T04:28:40.885Z,40.85
2022-12-04T04:31:53.493Z,36.45
2022-12-04T04:34:56.414Z,36.80
2022-12-04T04:38:14.418Z,35.63
2022-12-04T04:41:25.137Z,35.45
2022-12-04T04:44:54.706Z,38.90
2022-12-04T04:48:03.095Z,39.35
2022-12-04T04:51:09.104Z,46.87
2022-12-04T04:54:14.368Z,37.72
2022-12-04T04:57:32.321Z,36.47
2022-12-04T05:00:35.191Z,35.90
2022-12-04T05:03:47.360Z,38.90
2022-12-04T05:06:51.644Z,41.33
2022-12-04T05:09:54.837Z,40.47
2022-12-04T05:12:57.908Z,39.05
2022-12-04T05:16:04.058Z,37.67
2022-12-04T05:19:44.972Z,35.50
2022-12-04T05:22:47.949Z,32.93
2022-12-04T05:26:00.889Z,39.47
2022-12-04T05:29:04.360Z,39.95
2022-12-04T05:32:07.391Z,39.53
2022-12-04T05:35:13.404Z,39.83
2022-12-04T05:38:16.284Z,35.00
2022-12-04T05:41:19.199Z,36.30
2022-12-04T05:44:23.743Z,34.50
2022-12-04T05:47:26.606Z,34.15
2022-12-04T05:50:29.754Z,34.10
2022-12-04T05:53:35.583Z,32.50
2022-12-04T05:56:38.718Z,29.35
2022-12-04T05:59:41.673Z,30.75
2022-12-04T06:02:44.530Z,32.63
2022-12-04T06:05:47.627Z,32.70
2022-12-04T06:08:52.954Z,32.80
2022-12-04T06:11:58.572Z,35.90
2022-12-04T06:15:01.491Z,31.73
2022-12-04T06:18:04.455Z,31.62
2022-12-04T06:21:07.392Z,32.75
2022-12-04T06:24:15.421Z,34.03
2022-12-04T06:27:33.522Z,31.62
2022-12-04T06:30:36.470Z,33.38
2022-12-04T06:33:39.894Z,34.35
2022-12-04T06:36:43.024Z,32.45
2022-12-04T06:39:46.130Z,33.67
2022-12-04T06:42:48.884Z,31.70
2022-12-04T06:46:02.714Z,31.23
2022-12-04T06:49:05.566Z,32.33
2022-12-04T06:52:08.511Z,29.80
2022-12-04T06:55:11.316Z,31.37
2022-12-04T06:58:14.216Z,31.92
2022-12-04T07:01:20.266Z,32.78
2022-12-04T07:04:23.708Z,31.65
2022-12-04T07:07:26.818Z,32.47
2022-12-04T07:10:29.928Z,32.40
2022-12-04T07:13:32.804Z,30.00
2022-12-04T07:16:40.792Z,28.05
2022-12-04T07:19:44.248Z,29.60
2022-12-04T07:22:47.219Z,28.00
2022-12-04T07:25:50.164Z,31.20
2022-12-04T07:28:54.434Z,26.85
2022-12-04T07:31:57.612Z,27.20
2022-12-04T07:35:00.595Z,26.25
2022-12-04T07:38:03.344Z,28.40
2022-12-04T07:41:07.341Z,28.37
2022-12-04T07:44:10.204Z,24.33
2022-12-04T07:47:13.593Z,22.62
2022-12-04T07:50:16.822Z,21.98
2022-12-04T07:53:19.730Z,22.13
2022-12-04T07:56:22.545Z,22.67
2022-12-04T07:59:25.684Z,24.00
2022-12-04T08:02:28.696Z,24.77
2022-12-04T08:05:32.335Z,27.02
2022-12-04T08:08:36.177Z,31.12
2022-12-04T08:11:39.510Z,23.37
2022-12-04T08:14:42.309Z,24.90
2022-12-04T08:17:45.573Z,25.80
2022-12-04T08:20:48.378Z,26.75
2022-12-04T08:23:52.640Z,22.62
2022-12-04T08:26:55.428Z,27.60
2022-12-04T08:29:58.472Z,26.20
2022-12-04T08:33:01.734Z,28.12
2022-12-04T08:36:13.764Z,27.33
2022-12-04T08:39:16.606Z,25.62
2022-12-04T08:42:19.594Z,26.67
2022-12-04T08:45:22.493Z,25.23
2022-12-04T08:48:25.844Z,24.73
2022-12-04T08:51:30.628Z,26.00
2022-12-04T08:54:36.255Z,25.08
2022-12-04T08:57:39.281Z,20.37
2022-12-04T09:00:42.650Z,22.73
2022-12-04T09:03:45.587Z,22.55
2022-12-04T09:06:48.593Z,21.52
2022-12-04T09:09:51.531Z,18.77
2022-12-04T09:12:54.813Z,21.70
2022-12-04T09:15:57.922Z,18.80
2022-12-04T09:19:00.903Z,17.35
2022-12-04T09:22:04.497Z,16.15
2022-12-04T09:25:08.091Z,17.52
2022-12-04T09:28:11.116Z,19.40
2022-12-04T09:31:16.287Z,19.50
2022-12-04T09:34:19.678Z,16.67
2022-12-04T09:37:23.021Z,23.30
2022-12-04T09:40:33.732Z,22.15
2022-12-04T09:44:03.642Z,18.37
2022-12-04T09:47:20.632Z,19.52
2022-12-04T09:50:27.656Z,21.55
2022-12-04T09:53:43.059Z,21.35
2022-12-04T09:56:53.170Z,22.60
2022-12-04T09:59:56.827Z,18.63
2022-12-04T10:03:06.266Z,18.60
2022-12-04T10:06:15.173Z,17.87
2022-12-04T10:09:56.007Z,17.00
2022-12-04T10:13:47.532Z,18.08
2022-12-04T10:17:17.977Z,15.53
2022-12-04T10:20:30.100Z,15.05
2022-12-04T10:23:45.404Z,14.60
2022-12-04T10:26:49.382Z,12.10
2022-12-04T10:29:56.911Z,13.25
2022-12-04T10:33:20.103Z,13.40
2022-12-04T10:36:25.888Z,13.82
2022-12-04T10:39:45.398Z,14.82
2022-12-04T10:42:54.454Z,13.85
2022-12-04T10:45:57.404Z,14.85
2022-12-04T10:49:07.279Z,15.33
2022-12-04T10:52:12.641Z,17.87
2022-12-04T10:55:15.766Z,16.10
2022-12-04T10:58:20.766Z,15.10
2022-12-04T11:01:24.149Z,16.55
2022-12-04T11:04:29.134Z,15.03
2022-12-04T11:07:37.633Z,17.58
2022-12-04T11:10:43.513Z,16.00
2022-12-04T11:13:46.482Z,16.62
2022-12-04T11:17:07.201Z,18.30
2022-12-04T11:20:25.078Z,18.97
2022-12-04T11:23:32.470Z,16.40
2022-12-04T11:26:37.848Z,17.87
2022-12-04T11:29:45.435Z,17.10
2022-12-04T11:32:48.538Z,19.90
2022-12-04T11:35:54.578Z,15.67
2022-12-04T11:39:15.998Z,17.55
2022-12-04T11:42:18.939Z,16.73
2022-12-04T11:45:23.769Z,17.62
2022-12-04T11:48:27.605Z,17.25
2022-12-04T11:51:53.829Z,16.57
2022-12-04T11:55:11.149Z,17.77
2022-12-04T11:58:37.172Z,17.87
2022-12-04T12:01:48.666Z,18.40
2022-12-04T12:05:24.630Z,16.25
2022-12-04T12:08:46.673Z,19.53
2022-12-04T12:11:57.659Z,18.83
2022-12-04T12:15:03.587Z,16.98
2022-12-04T12:18:33.346Z,20.50
2022-12-04T12:21:50.154Z,21.20
2022-12-04T12:25:20.108Z,21.40
2022-12-04T12:28:51.931Z,22.23
2022-12-04T12:32:29.034Z,22.92
2022-12-04T12:35:40.482Z,19.75
2022-12-04T12:38:51.767Z,20.58
2022-12-04T12:41:57.282Z,24.30
2022-12-04T12:45:07.443Z,23.48
2022-12-04T12:48:19.784Z,21.25
2022-12-04T12:51:48.565Z,22.05
2022-12-04T12:54:59.605Z,23.40
2022-12-04T12:58:12.310Z,24.40
2022-12-04T13:01:37.271Z,22.58
2022-12-04T13:04:50.545Z,24.95
2022-12-04T13:08:15.863Z,24.85
2022-12-04T13:11:21.395Z,28.83
2022-12-04T13:14:24.540Z,30.70
2022-12-04T13:17:37.743Z,28.77
2022-12-04T13:20:49.585Z,85.28
2022-12-04T13:24:16.039Z,28.05
2022-12-04T13:27:50.620Z,29.02
2022-12-04T13:31:02.707Z,72.83
2022-12-04T13:34:11.384Z,51.03
2022-12-04T13:37:35.845Z,125.12
2022-12-04T13:40:41.640Z,43.08
2022-12-04T13:43:45.352Z,66.05
2022-12-04T13:46:54.145Z,123.40
2022-12-04T13:50:30.931Z,119.60
2022-12-04T13:53:37.837Z,65.32
2022-12-04T13:56:42.951Z,90.15
2022-12-04T13:59:46.525Z,41.05
2022-12-04T14:02:55.394Z,41.73
2022-12-04T14:06:00.357Z,117.10
2022-12-04T14:09:17.790Z,41.37
2022-12-04T14:12:26.917Z,45.70
2022-12-04T14:15:32.429Z,44.42
2022-12-04T14:18:35.438Z,38.90
2022-12-04T14:21:40.422Z,34.28
2022-12-04T14:24:43.258Z,35.78
2022-12-04T14:27:52.062Z,40.08
2022-12-04T14:31:15.202Z,39.70
2022-12-04T14:34:29.542Z,36.53
2022-12-04T14:37:37.234Z,82.12
2022-12-04T14:40:45.648Z,53.03
2022-12-04T14:43:52.065Z,31.67
2022-12-04T14:46:59.293Z,28.67
2022-12-04T14:50:28.734Z,34.03
2022-12-04T14:53:49.250Z,37.38
2022-12-04T14:57:20.505Z,34.38
2022-12-04T15:00:26.787Z,34.28
2022-12-04T15:03:32.493Z,33.65
2022-12-04T15:06:36.301Z,35.23
2022-12-04T15:09:58.236Z,37.13
2022-12-04T15:13:01.154Z,35.20
2022-12-04T15:16:11.537Z,35.60
2022-12-04T15:19:19.145Z,43.53
2022-12-04T15:22:28.083Z,175.07
2022-12-04T15:25:44.719Z,989.65
2022-12-04T15:28:55.027Z,305.87
2022-12-04T15:32:03.189Z,163.70
2022-12-04T15:35:13.590Z,166.90
2022-12-04T15:38:18.749Z,117.27
2022-12-04T15:41:30.954Z,52.05
2022-12-04T15:44:35.707Z,55.42
2022-12-04T15:47:41.584Z,54.15
2022-12-04T15:50:44.744Z,49.72
2022-12-04T15:53:48.517Z,45.67
2022-12-04T15:57:07.051Z,46.40
2022-12-04T16:00:32.937Z,42.85
2022-12-04T16:03:42.443Z,48.50
2022-12-04T16:06:49.949Z,48.85
2022-12-04T16:10:02.628Z,55.73
2022-12-04T16:13:31.389Z,52.03
2022-12-04T16:16:37.785Z,42.67
2022-12-04T16:19:42.097Z,46.22
2022-12-04T16:22:45.791Z,43.83
2022-12-04T16:25:53.360Z,42.73
2022-12-04T16:28:57.193Z,41.92
2022-12-04T16:32:12.986Z,44.85
2022-12-04T16:35:17.701Z,47.15
2022-12-04T16:38:20.902Z,50.08
2022-12-04T16:41:24.498Z,49.57
2022-12-04T16:44:27.819Z,45.05
2022-12-04T16:47:30.938Z,44.80
2022-12-04T16:50:34.054Z,43.22
2022-12-04T16:53:37.248Z,42.85
2022-12-04T16:56:40.604Z,44.30
2022-12-04T16:59:46.810Z,43.20
2022-12-04T17:02:50.217Z,43.83
2022-12-04T17:05:53.188Z,42.38
2022-12-04T17:08:56.310Z,41.92
2022-12-04T17:11:59.292Z,39.97
2022-12-04T17:15:10.885Z,54.25
2022-12-04T17:18:20.793Z,47.28
2022-12-04T17:21:24.551Z,45.65
2022-12-04T17:24:27.974Z,43.25
2022-12-04T17:27:32.217Z,42.07
2022-12-04T17:30:36.458Z,49.88
2022-12-04T17:33:39.542Z,43.35
2022-12-04T17:36:43.202Z,58.13
2022-12-04T17:39:46.769Z,48.30
2022-12-04T17:42:49.781Z,49.43
2022-12-04T17:45:52.877Z,56.50
2022-12-04T17:48:57.180Z,53.65
2022-12-04T17:52:10.295Z,54.72
2022-12-04T17:55:13.487Z,73.53
2022-12-04T17:58:16.753Z,75.97
2022-12-04T18:01:25.106Z,65.65
2022-12-04T18:04:28.300Z,97.15
2022-12-04T18:07:31.810Z,307.45
2022-12-04T18:10:35.382Z,455.33
2022-12-04T18:13:41.878Z,589.57
2022-12-04T18:16:53.258Z,518.58
2022-12-04T18:20:02.651Z,480.65
2022-12-04T18:23:07.729Z,281.23
2022-12-04T18:26:12.377Z,399.62
2022-12-04T18:29:19.300Z,353.57
2022-12-04T18:32:22.406Z,150.50
2022-12-04T18:35:28.274Z,82.05
2022-12-04T18:38:32.407Z,76.53
2022-12-04T18:41:36.836Z,82.95
2022-12-04T18:44:41.086Z,81.80
2022-12-04T18:47:44.148Z,60.78
2022-12-04T18:50:47.313Z,64.50
2022-12-04T18:53:53.721Z,203.57
2022-12-04T18:56:57.669Z,106.35
2022-12-04T19:00:03.894Z,45.57
2022-12-04T19:03:15.416Z,57.35
2022-12-04T19:06:33.933Z,72.82
2022-12-04T19:10:10.418Z,42.83
2022-12-04T19:13:12.616Z,38.17
2022-12-04T19:16:17.926Z,35.67
2022-12-04T19:19:27.484Z,37.42
2022-12-04T19:22:36.923Z,42.25
2022-12-04T19:25:41.275Z,40.83
2022-12-04T19:28:44.662Z,41.42
2022-12-04T19:31:48.038Z,37.37
2022-12-04T19:34:54.002Z,33.63
2022-12-04T19:38:01.125Z,38.22
2022-12-04T19:41:13.727Z,37.85
2022-12-04T19:47:46.384Z,36.33
2022-12-04T19:50:50.555Z,35.85
2022-12-04T19:53:55.732Z,37.58
2022-12-04T19:57:01.116Z,32.40
2022-12-04T20:00:06.102Z,37.08
2022-12-04T20:03:10.535Z,36.07
2022-12-04T20:06:16.864Z,32.60
2022-12-04T20:09:22.123Z,34.00
2022-12-04T20:12:26.471Z,36.85
2022-12-04T20:15:29.763Z,32.22
2022-12-04T20:18:33.551Z,32.63
2022-12-04T20:21:36.753Z,32.33
2022-12-04T20:24:39.942Z,40.38
2022-12-04T20:27:44.678Z,36.50
2022-12-04T20:30:50.076Z,43.80
2022-12-04T20:33:54.754Z,40.43
2022-12-04T20:36:59.227Z,38.85
2022-12-04T20:40:07.795Z,33.72
2022-12-04T20:43:13.810Z,40.60
2022-12-04T20:46:24.712Z,38.42
2022-12-04T20:49:28.000Z,36.60
2022-12-04T20:52:31.990Z,32.33
2022-12-04T20:55:39.650Z,34.00
2022-12-04T20:58:43.904Z,37.10
2022-12-04T21:01:49.959Z,40.40
2022-12-04T21:04:53.048Z,34.87
2022-12-04T21:07:55.943Z,35.50
2022-12-04T21:10:59.132Z,38.42
2022-12-04T21:14:22.138Z,39.03
2022-12-04T21:17:25.032Z,37.78
2022-12-04T21:20:29.626Z,39.93
2022-12-04T21:23:32.544Z,39.15
2022-12-04T21:26:35.832Z,43.20
2022-12-04T21:29:39.765Z,45.17
2022-12-04T21:32:45.654Z,38.60
2022-12-04T21:35:48.538Z,35.20
2022-12-04T21:38:51.794Z,33.17
2022-12-04T21:42:13.294Z,34.95
2022-12-04T21:45:16.100Z,34.78
2022-12-04T21:48:22.433Z,35.47
2022-12-04T21:51:48.703Z,36.80
2022-12-04T21:54:52.618Z,34.80
2022-12-04T21:57:55.837Z,42.40
2022-12-04T22:00:58.692Z,34.65
2022-12-04T22:04:01.548Z,38.85
2022-12-04T22:07:04.449Z,40.40
2022-12-04T22:10:10.820Z,35.05
2022-12-04T22:13:14.164Z,35.85
2022-12-04T22:16:19.596Z,35.33
2022-12-04T22:19:22.975Z,32.78
2022-12-04T22:22:25.875Z,34.13
2022-12-04T22:25:32.228Z,36.15
2022-12-04T22:28:35.489Z,38.13
2022-12-04T22:31:38.471Z,36.10
2022-12-04T22:34:47.436Z,42.53
2022-12-04T22:37:50.234Z,43.03
2022-12-04T22:40:53.228Z,45.28
2022-12-04T22:43:56.130Z,43.95
2022-12-04T22:47:01.921Z,43.22
2022-12-04T22:50:06.464Z,41.13
2022-12-04T22:53:09.360Z,46.03
2022-12-04T22:56:14.977Z,43.40
2022-12-04T22:59:17.856Z,39.70
2022-12-04T23:02:24.050Z,39.78
2022-12-04T23:05:27.144Z,31.12
2022-12-04T23:08:30.284Z,29.77
2022-12-04T23:11:33.638Z,25.85
2022-12-04T23:14:37.142Z,27.08
2022-12-04T23:17:40.003Z,29.50
2022-12-04T23:20:42.969Z,27.52
2022-12-04T23:23:46.925Z,22.20
2022-12-04T23:26:49.743Z,28.87
2022-12-04T23:30:04.532Z,22.87
2022-12-04T23:33:07.520Z,21.90
2022-12-04T23:36:11.978Z,25.67
2022-12-04T23:39:14.859Z,24.80
2022-12-04T23:42:17.826Z,23.05
2022-12-04T23:45:20.655Z,24.58
2022-12-04T23:48:24.619Z,21.23
2022-12-04T23:51:28.190Z,21.70
2022-12-04T23:54:35.210Z,19.07
2022-12-04T23:57:37.951Z,19.12
